Wetterdaten: Woche 17.09.12 - 23.09.12 (KW38)
Datum Zeit Temperatur Luftfeuchte Luftdruck Niederschlag Windrichtung Sonnenschein Solar Wind
17.09.2012 00:00 9,7 C 95 % 1013,2 hPa 0,0 l/m N 0,00 h 0 W/m 0,0 km/h (0 Bft)
17.09.2012 01:00 9,0 C 95 % 1013,3 hPa 0,0 l/m N 0,00 h 0 W/m 0,1 km/h (0 Bft)
17.09.2012 02:00 8,5 C 95 % 1013,5 hPa 0,0 l/m N 0,00 h 0 W/m 0,0 km/h (0 Bft)
17.09.2012 03:00 7,9 C 94 % 1013,5 hPa 0,0 l/m N 0,00 h 0 W/m 0,0 km/h (0 Bft)
17.09.2012 04:00 7,4 C 95 % 1013,7 hPa 0,0 l/m N 0,00 h 0 W/m 0,0 km/h (0 Bft)
17.09.2012 05:00 7,2 C 95 % 1013,5 hPa 0,0 l/m N 0,00 h 0 W/m 0,0 km/h (0 Bft)
17.09.2012 06:00 8,1 C 97 % 1013,5 hPa 0,0 l/m SW 0,00 h 0 W/m 5,4 km/h (1 Bft)
17.09.2012 07:00 10,5 C 98 % 1013,8 hPa 0,0 l/m S-SW 0,00 h 22 W/m 6,0 km/h (2 Bft)
17.09.2012 08:00 11,7 C 98 % 1014,1 hPa 0,0 l/m N 0,42 h 127 W/m 1,9 km/h (1 Bft)
17.09.2012 09:00 13,5 C 97 % 1014,4 hPa 0,0 l/m S 0,75 h 273 W/m 5,3 km/h (1 Bft)
17.09.2012 10:00 16,2 C 87 % 1014,5 hPa 0,0 l/m SW 0,75 h 345 W/m 9,0 km/h (2 Bft)
17.09.2012 11:00 17,8 C 79 % 1014,7 hPa 0,0 l/m SW 0,75 h 518 W/m 10,1 km/h (2 Bft)
17.09.2012 12:00 19,8 C 67 % 1014,5 hPa 0,0 l/m SW 1,00 h 731 W/m 13,6 km/h (3 Bft)
17.09.2012 13:00 21,1 C 60 % 1014,1 hPa 0,0 l/m SW 1,00 h 726 W/m 13,6 km/h (3 Bft)
17.09.2012 14:00 21,7 C 57 % 1013,7 hPa 0,0 l/m SW 1,00 h 624 W/m 12,5 km/h (3 Bft)
17.09.2012 15:00 21,9 C 56 % 1013,3 hPa 0,0 l/m W-SW 1,00 h 567 W/m 11,3 km/h (2 Bft)
17.09.2012 16:00 21,7 C 57 % 1013,1 hPa 0,0 l/m S-SW 1,00 h 447 W/m 11,0 km/h (2 Bft)
17.09.2012 17:00 20,4 C 63 % 1013,0 hPa 0,0 l/m SW 0,58 h 180 W/m 6,2 km/h (2 Bft)
17.09.2012 18:00 18,8 C 72 % 1012,9 hPa 0,0 l/m SW 0,08 h 67 W/m 4,1 km/h (1 Bft)
17.09.2012 19:00 16,9 C 81 % 1013,1 hPa 0,0 l/m N 0,17 h 22 W/m 0,4 km/h (0 Bft)
17.09.2012 20:00 14,7 C 89 % 1013,6 hPa 0,0 l/m N 0,00 h 0 W/m 0,0 km/h (0 Bft)
17.09.2012 21:00 13,3 C 93 % 1013,9 hPa 0,0 l/m N 0,00 h 0 W/m 0,0 km/h (0 Bft)
17.09.2012 22:00 12,4 C 95 % 1014,1 hPa 0,0 l/m N 0,00 h 0 W/m 0,0 km/h (0 Bft)
17.09.2012 23:00 11,6 C 96 % 1014,1 hPa 0,0 l/m N 0,00 h 0 W/m 0,0 km/h (0 Bft)
18.09.2012 00:00 10,7 C 97 % 1013,9 hPa 0,0 l/m N 0,00 h 0 W/m 0,0 km/h (0 Bft)
18.09.2012 01:00 9,9 C 97 % 1013,5 hPa 0,0 l/m N 0,00 h 0 W/m 0,0 km/h (0 Bft)
18.09.2012 02:00 9,3 C 97 % 1013,4 hPa 0,0 l/m N 0,00 h 0 W/m 0,0 km/h (0 Bft)
18.09.2012 03:00 8,7 C 97 % 1013,2 hPa 0,0 l/m N 0,00 h 0 W/m 0,0 km/h (0 Bft)
18.09.2012 04:00 8,2 C 97 % 1013,1 hPa 0,0 l/m N 0,00 h 0 W/m 0,0 km/h (0 Bft)
18.09.2012 05:00 8,0 C 97 % 1013,0 hPa 0,0 l/m N 0,00 h 0 W/m 0,0 km/h (0 Bft)
18.09.2012 06:00 7,9 C 97 % 1012,7 hPa 0,0 l/m N 0,00 h 0 W/m 0,0 km/h (0 Bft)
18.09.2012 07:00 7,8 C 97 % 1012,8 hPa 0,0 l/m N 0,00 h 21 W/m 0,0 km/h (0 Bft)
18.09.2012 08:00 8,9 C 98 % 1012,9 hPa 0,0 l/m N 0,50 h 138 W/m 0,0 km/h (0 Bft)
18.09.2012 09:00 12,4 C 96 % 1012,9 hPa 0,0 l/m N 1,00 h 317 W/m 0,0 km/h (0 Bft)
18.09.2012 10:00 16,1 C 88 % 1012,6 hPa 0,0 l/m S-SW 1,00 h 474 W/m 12,2 km/h (2 Bft)
18.09.2012 11:00 17,8 C 84 % 1012,1 hPa 0,0 l/m S-SW 1,00 h 599 W/m 13,4 km/h (3 Bft)
18.09.2012 12:00 20,4 C 76 % 1011,6 hPa 0,0 l/m S-SW 1,00 h 680 W/m 13,6 km/h (3 Bft)
18.09.2012 13:00 22,1 C 62 % 1011,0 hPa 0,0 l/m SW 1,00 h 670 W/m 14,6 km/h (3 Bft)
18.09.2012 14:00 22,5 C 56 % 1010,5 hPa 0,0 l/m W-SW 0,75 h 518 W/m 16,0 km/h (3 Bft)
18.09.2012 15:00 22,4 C 57 % 1010,1 hPa 0,0 l/m SW 0,92 h 484 W/m 15,8 km/h (3 Bft)
18.09.2012 16:00 21,9 C 61 % 1009,7 hPa 0,0 l/m W-SW 0,33 h 234 W/m 13,7 km/h (3 Bft)
18.09.2012 17:00 20,5 C 70 % 1009,7 hPa 0,0 l/m W-SW 0,00 h 77 W/m 10,5 km/h (2 Bft)
18.09.2012 18:00 19,5 C 74 % 1009,8 hPa 0,0 l/m W-SW 0,00 h 29 W/m 8,7 km/h (2 Bft)
18.09.2012 19:00 18,8 C 77 % 1009,9 hPa 0,0 l/m W 0,00 h 6 W/m 9,7 km/h (2 Bft)
18.09.2012 20:00 17,8 C 81 % 1010,5 hPa 0,0 l/m W-SW 0,00 h 0 W/m 7,6 km/h (2 Bft)
18.09.2012 21:00 16,9 C 84 % 1010,9 hPa 0,0 l/m N 0,00 h 0 W/m 2,1 km/h (1 Bft)
18.09.2012 22:00 15,7 C 92 % 1011,3 hPa 1,0 l/m W-NW 0,00 h 0 W/m 2,3 km/h (1 Bft)
18.09.2012 23:00 14,3 C 93 % 1011,5 hPa 1,0 l/m NW 0,00 h 0 W/m 6,1 km/h (2 Bft)
19.09.2012 00:00 13,5 C 95 % 1011,7 hPa 1,4 l/m NW 0,00 h 0 W/m 5,4 km/h (1 Bft)
19.09.2012 01:00 13,2 C 96 % 1011,8 hPa 0,6 l/m N-NW 0,00 h 0 W/m 9,1 km/h (2 Bft)
19.09.2012 02:00 12,7 C 96 % 1012,1 hPa 0,4 l/m N-NW 0,00 h 0 W/m 5,9 km/h (2 Bft)
19.09.2012 03:00 12,2 C 96 % 1012,2 hPa 1,2 l/m N-NO 0,00 h 0 W/m 9,9 km/h (2 Bft)
19.09.2012 04:00 11,0 C 95 % 1012,8 hPa 1,4 l/m N-NO 0,00 h 0 W/m 8,3 km/h (2 Bft)
19.09.2012 05:00 10,3 C 95 % 1013,1 hPa 1,0 l/m N 0,00 h 0 W/m 4,7 km/h (1 Bft)
19.09.2012 06:00 10,2 C 96 % 1013,4 hPa 0,4 l/m N-NO 0,00 h 0 W/m 3,3 km/h (1 Bft)
19.09.2012 07:00 10,2 C 96 % 1014,1 hPa 0,6 l/m N 0,00 h 10 W/m 4,9 km/h (1 Bft)
19.09.2012 08:00 10,1 C 96 % 1014,6 hPa 0,6 l/m N 0,00 h 23 W/m 1,9 km/h (1 Bft)
19.09.2012 09:00 10,2 C 96 % 1015,3 hPa 0,4 l/m NW 0,00 h 39 W/m 1,9 km/h (1 Bft)
19.09.2012 10:00 10,7 C 96 % 1015,9 hPa 0,2 l/m S-SW 0,00 h 94 W/m 6,1 km/h (2 Bft)
19.09.2012 11:00 10,6 C 96 % 1016,5 hPa 0,6 l/m W-SW 0,00 h 38 W/m 7,6 km/h (2 Bft)
19.09.2012 12:00 9,9 C 96 % 1017,1 hPa 2,8 l/m N 0,00 h 40 W/m 8,4 km/h (2 Bft)
19.09.2012 13:00 10,5 C 93 % 1017,6 hPa 0,0 l/m N 0,17 h 271 W/m 5,5 km/h (1 Bft)
19.09.2012 14:00 12,6 C 80 % 1017,4 hPa 0,0 l/m N-NO 0,67 h 632 W/m 6,8 km/h (2 Bft)
19.09.2012 15:00 12,7 C 76 % 1017,4 hPa 0,0 l/m N-NW 0,17 h 178 W/m 9,1 km/h (2 Bft)
19.09.2012 16:00 13,0 C 69 % 1017,8 hPa 0,0 l/m NW 0,58 h 319 W/m 7,8 km/h (2 Bft)
19.09.2012 17:00 12,5 C 80 % 1018,3 hPa 0,0 l/m W-SW 0,33 h 169 W/m 8,3 km/h (2 Bft)
19.09.2012 18:00 11,6 C 77 % 1018,8 hPa 0,0 l/m N 0,50 h 97 W/m 2,7 km/h (1 Bft)
19.09.2012 19:00 10,7 C 84 % 1019,2 hPa 0,0 l/m N 0,00 h 10 W/m 0,5 km/h (0 Bft)
19.09.2012 20:00 9,3 C 86 % 1019,9 hPa 0,0 l/m N 0,00 h 0 W/m 1,2 km/h (1 Bft)
19.09.2012 21:00 8,2 C 89 % 1020,5 hPa 0,0 l/m N 0,00 h 0 W/m 1,5 km/h (1 Bft)
19.09.2012 22:00 7,8 C 91 % 1021,2 hPa 0,0 l/m N 0,00 h 0 W/m 0,5 km/h (0 Bft)
19.09.2012 23:00 7,6 C 92 % 1021,5 hPa 0,0 l/m N 0,00 h 0 W/m 0,3 km/h (0 Bft)
20.09.2012 00:00 7,2 C 92 % 1021,8 hPa 0,0 l/m N 0,00 h 0 W/m 0,0 km/h (0 Bft)
20.09.2012 01:00 6,9 C 93 % 1022,2 hPa 0,0 l/m N 0,00 h 0 W/m 0,9 km/h (0 Bft)
20.09.2012 02:00 6,5 C 93 % 1022,7 hPa 0,0 l/m N 0,00 h 0 W/m 0,0 km/h (0 Bft)
20.09.2012 03:00 5,7 C 93 % 1022,8 hPa 0,0 l/m N 0,00 h 0 W/m 0,0 km/h (0 Bft)
20.09.2012 04:00 5,0 C 94 % 1023,0 hPa 0,0 l/m N 0,00 h 0 W/m 0,0 km/h (0 Bft)
20.09.2012 05:00 4,6 C 94 % 1023,0 hPa 0,2 l/m N 0,00 h 0 W/m 0,0 km/h (0 Bft)
20.09.2012 06:00 4,0 C 95 % 1022,9 hPa 0,0 l/m N 0,00 h 0 W/m 0,0 km/h (0 Bft)
20.09.2012 07:00 3,5 C 95 % 1023,3 hPa 0,0 l/m N 0,00 h 15 W/m 0,0 km/h (0 Bft)
20.09.2012 08:00 4,2 C 97 % 1023,5 hPa 0,0 l/m N 0,00 h 75 W/m 0,0 km/h (0 Bft)
20.09.2012 09:00 6,2 C 98 % 1023,5 hPa 0,0 l/m N 0,42 h 239 W/m 0,0 km/h (0 Bft)
20.09.2012 10:00 8,9 C 94 % 1023,5 hPa 0,0 l/m N 1,00 h 464 W/m 0,0 km/h (0 Bft)
20.09.2012 11:00 11,6 C 73 % 1023,5 hPa 0,0 l/m O-SO 1,00 h 620 W/m 1,1 km/h (0 Bft)
20.09.2012 12:00 13,2 C 52 % 1023,4 hPa 0,0 l/m O-SO 1,00 h 696 W/m 6,0 km/h (2 Bft)
20.09.2012 13:00 14,3 C 48 % 1022,9 hPa 0,0 l/m O 1,00 h 729 W/m 8,7 km/h (2 Bft)
20.09.2012 14:00 14,7 C 49 % 1022,1 hPa 0,0 l/m O-SO 1,00 h 592 W/m 9,5 km/h (2 Bft)
20.09.2012 15:00 15,3 C 47 % 1021,7 hPa 0,0 l/m O-NO 1,00 h 604 W/m 10,9 km/h (2 Bft)
20.09.2012 16:00 15,3 C 45 % 1021,2 hPa 0,0 l/m O-SO 1,00 h 478 W/m 10,2 km/h (2 Bft)
20.09.2012 17:00 14,6 C 48 % 1020,8 hPa 0,0 l/m O 1,00 h 274 W/m 9,8 km/h (2 Bft)
20.09.2012 18:00 13,5 C 55 % 1020,6 hPa 0,0 l/m O 0,42 h 76 W/m 6,3 km/h (2 Bft)
20.09.2012 19:00 10,4 C 73 % 1020,6 hPa 0,0 l/m N 0,00 h 11 W/m 0,7 km/h (0 Bft)
20.09.2012 20:00 8,4 C 82 % 1020,9 hPa 0,0 l/m N 0,00 h 0 W/m 1,2 km/h (1 Bft)
20.09.2012 21:00 7,5 C 85 % 1021,0 hPa 0,0 l/m N 0,00 h 0 W/m 1,6 km/h (1 Bft)
20.09.2012 22:00 7,0 C 86 % 1021,1 hPa 0,0 l/m N 0,00 h 0 W/m 1,6 km/h (1 Bft)
20.09.2012 23:00 6,6 C 87 % 1021,1 hPa 0,0 l/m N 0,00 h 0 W/m 1,7 km/h (1 Bft)
21.09.2012 00:00 6,1 C 87 % 1021,0 hPa 0,0 l/m N 0,00 h 0 W/m 0,1 km/h (0 Bft)
21.09.2012 01:00 5,4 C 88 % 1020,9 hPa 0,0 l/m N 0,00 h 0 W/m 0,0 km/h (0 Bft)
21.09.2012 02:00 4,7 C 89 % 1020,6 hPa 0,0 l/m N 0,00 h 0 W/m 0,0 km/h (0 Bft)
21.09.2012 03:00 4,1 C 90 % 1020,3 hPa 0,0 l/m N 0,00 h 0 W/m 0,0 km/h (0 Bft)
21.09.2012 04:00 3,6 C 91 % 1020,0 hPa 0,0 l/m N 0,00 h 0 W/m 0,0 km/h (0 Bft)
21.09.2012 05:00 3,4 C 92 % 1019,8 hPa 0,0 l/m N 0,00 h 0 W/m 0,0 km/h (0 Bft)
21.09.2012 06:00 3,2 C 93 % 1019,5 hPa 0,0 l/m N 0,00 h 0 W/m 0,0 km/h (0 Bft)
21.09.2012 07:00 2,8 C 93 % 1019,7 hPa 0,0 l/m N 0,00 h 19 W/m 0,0 km/h (0 Bft)
21.09.2012 08:00 3,8 C 95 % 1019,6 hPa 0,0 l/m N 0,58 h 132 W/m 0,0 km/h (0 Bft)
21.09.2012 09:00 6,6 C 92 % 1019,7 hPa 0,0 l/m N 1,00 h 299 W/m 0,0 km/h (0 Bft)
21.09.2012 10:00 8,6 C 93 % 1019,6 hPa 0,0 l/m S-SW 0,58 h 314 W/m 4,7 km/h (1 Bft)
21.09.2012 11:00 11,9 C 87 % 1019,1 hPa 0,0 l/m S 1,00 h 580 W/m 9,7 km/h (2 Bft)
21.09.2012 12:00 16,0 C 73 % 1018,1 hPa 0,0 l/m S-SW 1,00 h 651 W/m 11,0 km/h (2 Bft)
21.09.2012 13:00 18,1 C 67 % 1017,1 hPa 0,0 l/m S-SW 1,00 h 659 W/m 15,8 km/h (3 Bft)
21.09.2012 14:00 19,4 C 64 % 1015,9 hPa 0,0 l/m S-SW 1,00 h 649 W/m 17,0 km/h (3 Bft)
21.09.2012 15:00 20,2 C 59 % 1015,1 hPa 0,0 l/m SW 1,00 h 575 W/m 16,8 km/h (3 Bft)
21.09.2012 16:00 20,0 C 54 % 1014,3 hPa 0,0 l/m W-SW 1,00 h 457 W/m 19,6 km/h (3 Bft)
21.09.2012 17:00 19,1 C 57 % 1013,6 hPa 0,0 l/m W-SW 1,00 h 293 W/m 18,6 km/h (3 Bft)
21.09.2012 18:00 17,3 C 68 % 1013,0 hPa 0,0 l/m SW 0,58 h 83 W/m 8,2 km/h (2 Bft)
21.09.2012 19:00 14,3 C 82 % 1012,6 hPa 0,0 l/m N 0,00 h 8 W/m 1,2 km/h (1 Bft)
21.09.2012 20:00 13,4 C 88 % 1012,6 hPa 0,0 l/m N 0,00 h 0 W/m 0,0 km/h (0 Bft)
21.09.2012 21:00 13,5 C 89 % 1012,1 hPa 0,0 l/m N 0,00 h 0 W/m 0,0 km/h (0 Bft)
21.09.2012 22:00 13,8 C 90 % 1011,9 hPa 0,4 l/m W-SW 0,00 h 0 W/m 6,7 km/h (2 Bft)
21.09.2012 23:00 13,5 C 93 % 1011,3 hPa 0,6 l/m SW 0,00 h 0 W/m 10,9 km/h (2 Bft)
22.09.2012 00:00 13,4 C 95 % 1010,7 hPa 0,4 l/m SW 0,00 h 0 W/m 12,1 km/h (2 Bft)
22.09.2012 01:00 13,3 C 96 % 1010,7 hPa 2,0 l/m SW 0,00 h 0 W/m 9,2 km/h (2 Bft)
22.09.2012 02:00 13,8 C 97 % 1010,9 hPa 1,2 l/m W-SW 0,00 h 0 W/m 18,4 km/h (3 Bft)
22.09.2012 03:00 13,9 C 97 % 1010,7 hPa 1,8 l/m W-SW 0,00 h 0 W/m 10,2 km/h (2 Bft)
22.09.2012 04:00 13,9 C 98 % 1010,6 hPa 0,8 l/m SW 0,00 h 0 W/m 11,2 km/h (2 Bft)
22.09.2012 05:00 14,0 C 98 % 1010,7 hPa 0,4 l/m W-SW 0,00 h 0 W/m 9,7 km/h (2 Bft)
22.09.2012 06:00 14,0 C 98 % 1010,9 hPa 0,6 l/m W-SW 0,00 h 0 W/m 5,6 km/h (1 Bft)
22.09.2012 07:00 14,0 C 98 % 1011,2 hPa 0,4 l/m W-SW 0,00 h 25 W/m 10,6 km/h (2 Bft)
22.09.2012 08:00 14,2 C 98 % 1011,3 hPa 0,0 l/m W-SW 0,00 h 47 W/m 13,8 km/h (3 Bft)
22.09.2012 09:00 14,6 C 98 % 1011,7 hPa 0,0 l/m SW 0,00 h 65 W/m 12,2 km/h (2 Bft)
22.09.2012 10:00 14,9 C 97 % 1011,8 hPa 0,2 l/m W 0,00 h 85 W/m 12,9 km/h (3 Bft)
22.09.2012 11:00 15,5 C 93 % 1012,0 hPa 0,0 l/m W-SW 0,00 h 99 W/m 15,4 km/h (3 Bft)
22.09.2012 12:00 14,5 C 92 % 1012,5 hPa 1,2 l/m N-NO 0,00 h 37 W/m 16,5 km/h (3 Bft)
22.09.2012 13:00 11,6 C 93 % 1013,6 hPa 0,0 l/m N-NW 0,00 h 132 W/m 19,7 km/h (3 Bft)
22.09.2012 14:00 10,9 C 91 % 1014,1 hPa 0,0 l/m N 0,00 h 55 W/m 10,6 km/h (2 Bft)
22.09.2012 15:00 11,3 C 87 % 1014,6 hPa 0,0 l/m N-NW 0,00 h 97 W/m 9,5 km/h (2 Bft)
22.09.2012 16:00 12,0 C 82 % 1015,1 hPa 0,0 l/m N 0,00 h 70 W/m 7,0 km/h (2 Bft)
22.09.2012 17:00 12,4 C 80 % 1015,9 hPa 0,0 l/m NO 0,00 h 74 W/m 4,3 km/h (1 Bft)
22.09.2012 18:00 12,0 C 86 % 1016,5 hPa 0,0 l/m SW 0,00 h 41 W/m 4,4 km/h (1 Bft)
22.09.2012 19:00 11,3 C 89 % 1017,1 hPa 0,0 l/m N 0,00 h 7 W/m 1,7 km/h (1 Bft)
22.09.2012 20:00 10,5 C 91 % 1017,6 hPa 0,0 l/m SW 0,00 h 0 W/m 3,1 km/h (1 Bft)
22.09.2012 21:00 10,1 C 93 % 1017,6 hPa 0,0 l/m N 0,00 h 0 W/m 1,9 km/h (1 Bft)
22.09.2012 22:00 9,7 C 93 % 1017,4 hPa 0,0 l/m N 0,00 h 0 W/m 0,0 km/h (0 Bft)
22.09.2012 23:00 9,6 C 94 % 1017,3 hPa 0,0 l/m N 0,00 h 0 W/m 2,0 km/h (1 Bft)
23.09.2012 00:00 9,7 C 95 % 1017,1 hPa 0,0 l/m W-SW 0,00 h 0 W/m 3,5 km/h (1 Bft)
23.09.2012 01:00 9,7 C 95 % 1017,0 hPa 0,0 l/m NW 0,00 h 0 W/m 5,6 km/h (1 Bft)
23.09.2012 02:00 9,6 C 95 % 1016,6 hPa 0,0 l/m N 0,00 h 0 W/m 3,5 km/h (1 Bft)
23.09.2012 03:00 9,3 C 94 % 1015,9 hPa 0,0 l/m NW 0,00 h 0 W/m 4,7 km/h (1 Bft)
23.09.2012 04:00 9,3 C 95 % 1015,5 hPa 0,0 l/m NW 0,00 h 0 W/m 4,9 km/h (1 Bft)
23.09.2012 05:00 9,4 C 95 % 1015,0 hPa 0,0 l/m N 0,00 h 0 W/m 2,4 km/h (1 Bft)
23.09.2012 06:00 9,3 C 95 % 1014,9 hPa 0,0 l/m NW 0,00 h 0 W/m 3,3 km/h (1 Bft)
23.09.2012 07:00 9,2 C 94 % 1015,0 hPa 0,0 l/m NW 0,00 h 20 W/m 2,9 km/h (1 Bft)
23.09.2012 08:00 9,4 C 95 % 1015,1 hPa 0,0 l/m NW 0,17 h 87 W/m 4,9 km/h (1 Bft)
23.09.2012 09:00 10,4 C 93 % 1015,1 hPa 0,0 l/m N-NW 0,08 h 133 W/m 4,0 km/h (1 Bft)
23.09.2012 10:00 11,4 C 91 % 1015,1 hPa 0,0 l/m N 0,00 h 114 W/m 3,1 km/h (1 Bft)
23.09.2012 11:00 12,6 C 89 % 1014,5 hPa 0,0 l/m N-NW 0,25 h 252 W/m 3,2 km/h (1 Bft)
23.09.2012 12:00 14,1 C 86 % 1013,7 hPa 0,0 l/m N-NO 0,33 h 361 W/m 3,5 km/h (1 Bft)
23.09.2012 13:00 16,1 C 82 % 1013,0 hPa 0,0 l/m N-NO 0,75 h 454 W/m 5,3 km/h (1 Bft)
23.09.2012 14:00 17,7 C 81 % 1011,8 hPa 0,0 l/m NO 1,00 h 470 W/m 7,1 km/h (2 Bft)
23.09.2012 15:00 19,1 C 78 % 1010,8 hPa 0,0 l/m O-NO 0,83 h 417 W/m 7,5 km/h (2 Bft)
23.09.2012 16:00 19,4 C 79 % 1009,7 hPa 0,0 l/m O 0,67 h 322 W/m 9,4 km/h (2 Bft)
23.09.2012 17:00 19,3 C 80 % 1008,9 hPa 0,0 l/m O-NO 1,00 h 258 W/m 8,4 km/h (2 Bft)
23.09.2012 18:00 18,4 C 84 % 1008,0 hPa 0,0 l/m O-NO 0,33 h 53 W/m 5,3 km/h (1 Bft)
23.09.2012 19:00 16,7 C 90 % 1007,4 hPa 0,0 l/m N 0,00 h 7 W/m 1,6 km/h (1 Bft)
23.09.2012 20:00 15,8 C 90 % 1007,2 hPa 0,0 l/m N 0,00 h 0 W/m 2,7 km/h (1 Bft)
23.09.2012 21:00 15,0 C 92 % 1006,8 hPa 0,0 l/m N 0,00 h 0 W/m 2,8 km/h (1 Bft)
23.09.2012 22:00 14,2 C 93 % 1006,2 hPa 0,0 l/m O-NO 0,00 h 0 W/m 3,1 km/h (1 Bft)
23.09.2012 23:00 13,4 C 94 % 1005,6 hPa 0,0 l/m N 0,00 h 0 W/m 1,1 km/h (0 Bft)
Min-Datum _ 21.09.12 20.09.12 23.09.12 - - - - 17.09.12
_ Min-Zeit 07:50 16:55 23:45 - - - - 00:00
Minimum _ 2,6 C 43 % 1005,2 hPa - - - - 0,0 km/h (0 Bft)
Max-Datum _ 18.09.12 17.09.12 20.09.12 19.09.12 - 17.09.12 19.09.12 21.09.12
_ Max-Zeit 14:40 08:30 08:25 12:25 - 08:10 13:50 17:05
Maximum _ 23,0 C 99 % 1023,7 hPa 2,8 l/m - 0,08 h 882 W/m 27,4 km/h
W-SW (4 Bft)
Durchschnitt _ 12,3 C 86 % 1015,2 hPa #23,8 l/m W-SW #42:25 h 266 W/m 5,4 km/h (1 Bft)